sensor_id;sensor_type;location;lat;lon;timestamp;temperature;humidity
11609;DHT22;5860;52.018;8.536;2022-12-18T00:01:34;-6.80;99.90
11609;DHT22;5860;52.018;8.536;2022-12-18T00:04:06;-6.80;99.90
11609;DHT22;5860;52.018;8.536;2022-12-18T00:06:35;-6.80;99.90
11609;DHT22;5860;52.018;8.536;2022-12-18T00:09:03;-6.90;99.90
11609;DHT22;5860;52.018;8.536;2022-12-18T00:11:30;-7.00;99.90
11609;DHT22;5860;52.018;8.536;2022-12-18T00:13:58;-7.00;99.90
11609;DHT22;5860;52.018;8.536;2022-12-18T00:16:26;-7.10;99.90
11609;DHT22;5860;52.018;8.536;2022-12-18T00:18:55;-7.10;99.90
11609;DHT22;5860;52.018;8.536;2022-12-18T00:21:22;-7.10;99.90
11609;DHT22;5860;52.018;8.536;2022-12-18T00:23:50;-7.00;99.90
11609;DHT22;5860;52.018;8.536;2022-12-18T00:26:26;-7.10;99.90
11609;DHT22;5860;52.018;8.536;2022-12-18T00:28:54;-7.10;99.90
11609;DHT22;5860;52.018;8.536;2022-12-18T00:31:24;-7.10;99.90
11609;DHT22;5860;52.018;8.536;2022-12-18T00:33:54;-7.30;99.90
11609;DHT22;5860;52.018;8.536;2022-12-18T00:36:24;-7.30;99.90
11609;DHT22;5860;52.018;8.536;2022-12-18T00:38:53;-7.30;99.90
11609;DHT22;5860;52.018;8.536;2022-12-18T00:41:20;-7.30;99.90
11609;DHT22;5860;52.018;8.536;2022-12-18T00:44:09;-7.20;99.90
11609;DHT22;5860;52.018;8.536;2022-12-18T00:46:36;-7.20;99.90
11609;DHT22;5860;52.018;8.536;2022-12-18T00:49:03;-7.20;99.90
11609;DHT22;5860;52.018;8.536;2022-12-18T00:51:30;-7.20;99.90
11609;DHT22;5860;52.018;8.536;2022-12-18T00:53:57;-7.10;99.90
11609;DHT22;5860;52.018;8.536;2022-12-18T00:56:24;-7.20;99.90
11609;DHT22;5860;52.018;8.536;2022-12-18T00:58:51;-7.20;99.90
11609;DHT22;5860;52.018;8.536;2022-12-18T01:01:19;-7.30;99.90
11609;DHT22;5860;52.018;8.536;2022-12-18T01:03:46;-7.30;99.90
11609;DHT22;5860;52.018;8.536;2022-12-18T01:06:14;-7.30;99.90
11609;DHT22;5860;52.018;8.536;2022-12-18T01:08:42;-7.30;99.90
11609;DHT22;5860;52.018;8.536;2022-12-18T01:11:11;-7.40;99.90
11609;DHT22;5860;52.018;8.536;2022-12-18T01:13:39;-7.40;99.90
11609;DHT22;5860;52.018;8.536;2022-12-18T01:16:07;-7.50;99.90
11609;DHT22;5860;52.018;8.536;2022-12-18T01:18:35;-7.40;99.90
11609;DHT22;5860;52.018;8.536;2022-12-18T01:21:07;-7.40;99.90
11609;DHT22;5860;52.018;8.536;2022-12-18T01:23:34;-7.40;99.90
11609;DHT22;5860;52.018;8.536;2022-12-18T01:26:10;-7.60;99.90
11609;DHT22;5860;52.018;8.536;2022-12-18T01:28:39;-7.50;99.90
11609;DHT22;5860;52.018;8.536;2022-12-18T01:31:18;-7.50;99.90
11609;DHT22;5860;52.018;8.536;2022-12-18T01:33:45;-7.10;99.90
11609;DHT22;5860;52.018;8.536;2022-12-18T01:36:26;-7.60;99.90
11609;DHT22;5860;52.018;8.536;2022-12-18T01:38:54;-7.60;99.90
11609;DHT22;5860;52.018;8.536;2022-12-18T01:41:24;-7.50;99.90
11609;DHT22;5860;52.018;8.536;2022-12-18T01:43:56;-7.60;99.90
11609;DHT22;5860;52.018;8.536;2022-12-18T01:46:24;-7.70;99.90
11609;DHT22;5860;52.018;8.536;2022-12-18T01:49:00;-7.60;99.90
11609;DHT22;5860;52.018;8.536;2022-12-18T01:51:30;-7.60;99.90
11609;DHT22;5860;52.018;8.536;2022-12-18T01:53:57;-7.60;99.90
11609;DHT22;5860;52.018;8.536;2022-12-18T01:56:25;-7.50;99.90
11609;DHT22;5860;52.018;8.536;2022-12-18T01:58:57;-7.50;99.90
11609;DHT22;5860;52.018;8.536;2022-12-18T02:01:26;-7.60;99.90
11609;DHT22;5860;52.018;8.536;2022-12-18T02:03:53;-7.70;99.90
11609;DHT22;5860;52.018;8.536;2022-12-18T02:06:37;-7.80;99.90
11609;DHT22;5860;52.018;8.536;2022-12-18T02:09:30;-7.60;99.90
11609;DHT22;5860;52.018;8.536;2022-12-18T02:12:13;-7.70;99.90
11609;DHT22;5860;52.018;8.536;2022-12-18T02:14:59;-7.70;99.90
11609;DHT22;5860;52.018;8.536;2022-12-18T02:18:17;-7.60;99.90
11609;DHT22;5860;52.018;8.536;2022-12-18T02:20:32;-7.70;99.90
11609;DHT22;5860;52.018;8.536;2022-12-18T02:28:25;-7.60;99.90
11609;DHT22;5860;52.018;8.536;2022-12-18T02:30:53;-7.70;99.90
11609;DHT22;5860;52.018;8.536;2022-12-18T02:33:23;-7.80;99.90
11609;DHT22;5860;52.018;8.536;2022-12-18T02:35:54;-7.80;99.90
11609;DHT22;5860;52.018;8.536;2022-12-18T02:38:23;-7.70;99.90
11609;DHT22;5860;52.018;8.536;2022-12-18T02:40:51;-7.70;99.90
11609;DHT22;5860;52.018;8.536;2022-12-18T02:43:19;-7.60;99.90
11609;DHT22;5860;52.018;8.536;2022-12-18T02:45:49;-7.60;99.90
11609;DHT22;5860;52.018;8.536;2022-12-18T02:48:22;-7.60;99.90
11609;DHT22;5860;52.018;8.536;2022-12-18T02:51:08;-7.70;99.90
11609;DHT22;5860;52.018;8.536;2022-12-18T02:53:45;-7.80;99.90
11609;DHT22;5860;52.018;8.536;2022-12-18T02:56:34;-7.80;99.90
11609;DHT22;5860;52.018;8.536;2022-12-18T02:59:12;-7.80;99.90
11609;DHT22;5860;52.018;8.536;2022-12-18T03:01:57;-7.60;99.90
11609;DHT22;5860;52.018;8.536;2022-12-18T03:04:30;-7.80;99.90
11609;DHT22;5860;52.018;8.536;2022-12-18T03:07:03;-7.90;99.90
11609;DHT22;5860;52.018;8.536;2022-12-18T03:09:38;-7.90;99.90
11609;DHT22;5860;52.018;8.536;2022-12-18T03:12:30;-8.00;99.90
11609;DHT22;5860;52.018;8.536;2022-12-18T03:17:48;-7.90;99.90
11609;DHT22;5860;52.018;8.536;2022-12-18T03:20:19;-7.90;99.90
11609;DHT22;5860;52.018;8.536;2022-12-18T03:22:50;-7.80;99.90
11609;DHT22;5860;52.018;8.536;2022-12-18T03:25:19;-7.80;99.90
11609;DHT22;5860;52.018;8.536;2022-12-18T03:27:49;-7.90;99.90
11609;DHT22;5860;52.018;8.536;2022-12-18T03:30:18;-8.00;99.90
11609;DHT22;5860;52.018;8.536;2022-12-18T03:35:46;-8.10;99.90
11609;DHT22;5860;52.018;8.536;2022-12-18T03:38:13;-8.20;99.90
11609;DHT22;5860;52.018;8.536;2022-12-18T03:41:11;-8.20;99.90
11609;DHT22;5860;52.018;8.536;2022-12-18T03:43:57;-8.20;99.90
11609;DHT22;5860;52.018;8.536;2022-12-18T03:46:43;-8.20;99.90
11609;DHT22;5860;52.018;8.536;2022-12-18T03:49:17;-8.20;99.90
11609;DHT22;5860;52.018;8.536;2022-12-18T03:51:57;-8.20;99.90
11609;DHT22;5860;52.018;8.536;2022-12-18T03:54:28;-8.10;99.90
11609;DHT22;5860;52.018;8.536;2022-12-18T03:57:01;-7.90;99.90
11609;DHT22;5860;52.018;8.536;2022-12-18T03:59:30;-8.00;99.90
11609;DHT22;5860;52.018;8.536;2022-12-18T04:01:59;-8.00;99.90
11609;DHT22;5860;52.018;8.536;2022-12-18T04:04:28;-7.90;99.90
11609;DHT22;5860;52.018;8.536;2022-12-18T04:06:57;-7.70;99.90
11609;DHT22;5860;52.018;8.536;2022-12-18T04:09:25;-7.70;99.90
11609;DHT22;5860;52.018;8.536;2022-12-18T04:11:52;-7.80;99.90
11609;DHT22;5860;52.018;8.536;2022-12-18T04:14:19;-7.80;99.90
11609;DHT22;5860;52.018;8.536;2022-12-18T04:16:46;-7.90;99.90
11609;DHT22;5860;52.018;8.536;2022-12-18T04:19:13;-7.90;99.90
11609;DHT22;5860;52.018;8.536;2022-12-18T04:21:40;-7.70;99.90
11609;DHT22;5860;52.018;8.536;2022-12-18T04:24:07;-7.70;99.90
11609;DHT22;5860;52.018;8.536;2022-12-18T04:26:34;-7.70;99.90
11609;DHT22;5860;52.018;8.536;2022-12-18T04:29:01;-7.60;99.90
11609;DHT22;5860;52.018;8.536;2022-12-18T04:31:28;-7.70;99.90
11609;DHT22;5860;52.018;8.536;2022-12-18T04:33:55;-7.60;99.90
11609;DHT22;5860;52.018;8.536;2022-12-18T04:36:22;-7.60;99.90
11609;DHT22;5860;52.018;8.536;2022-12-18T04:38:48;-7.60;99.90
11609;DHT22;5860;52.018;8.536;2022-12-18T04:41:15;-7.70;99.90
11609;DHT22;5860;52.018;8.536;2022-12-18T04:43:42;-7.70;99.90
11609;DHT22;5860;52.018;8.536;2022-12-18T04:46:09;-7.60;99.90
11609;DHT22;5860;52.018;8.536;2022-12-18T04:48:36;-7.70;99.90
11609;DHT22;5860;52.018;8.536;2022-12-18T04:51:04;-7.70;99.90
11609;DHT22;5860;52.018;8.536;2022-12-18T04:53:32;-7.70;99.90
11609;DHT22;5860;52.018;8.536;2022-12-18T04:56:07;-7.70;99.90
11609;DHT22;5860;52.018;8.536;2022-12-18T04:58:36;-7.70;99.90
11609;DHT22;5860;52.018;8.536;2022-12-18T05:01:03;-7.70;99.90
11609;DHT22;5860;52.018;8.536;2022-12-18T05:03:30;-7.80;99.90
11609;DHT22;5860;52.018;8.536;2022-12-18T05:05:57;-7.80;99.90
11609;DHT22;5860;52.018;8.536;2022-12-18T05:08:24;-7.90;99.90
11609;DHT22;5860;52.018;8.536;2022-12-18T05:11:03;-8.00;99.90
11609;DHT22;5860;52.018;8.536;2022-12-18T05:13:31;-8.00;99.90
11609;DHT22;5860;52.018;8.536;2022-12-18T05:15:58;-7.80;99.90
11609;DHT22;5860;52.018;8.536;2022-12-18T05:18:26;-7.70;99.90
11609;DHT22;5860;52.018;8.536;2022-12-18T05:20:54;-7.70;99.90
11609;DHT22;5860;52.018;8.536;2022-12-18T05:23:22;-7.70;99.90
11609;DHT22;5860;52.018;8.536;2022-12-18T05:25:58;-7.80;99.90
11609;DHT22;5860;52.018;8.536;2022-12-18T05:28:28;-7.90;99.90
11609;DHT22;5860;52.018;8.536;2022-12-18T05:30:58;-8.00;99.90
11609;DHT22;5860;52.018;8.536;2022-12-18T05:33:27;-8.00;99.90
11609;DHT22;5860;52.018;8.536;2022-12-18T05:35:57;-8.10;99.90
11609;DHT22;5860;52.018;8.536;2022-12-18T05:38:26;-8.20;99.90
11609;DHT22;5860;52.018;8.536;2022-12-18T05:40:53;-8.20;99.90
11609;DHT22;5860;52.018;8.536;2022-12-18T05:43:21;-8.20;99.90
11609;DHT22;5860;52.018;8.536;2022-12-18T05:45:49;-8.20;99.90
11609;DHT22;5860;52.018;8.536;2022-12-18T05:48:17;-8.20;99.90
11609;DHT22;5860;52.018;8.536;2022-12-18T05:50:45;-8.10;99.90
11609;DHT22;5860;52.018;8.536;2022-12-18T05:53:14;-8.10;99.90
11609;DHT22;5860;52.018;8.536;2022-12-18T05:55:42;-8.10;99.90
11609;DHT22;5860;52.018;8.536;2022-12-18T05:58:11;-8.00;99.90
11609;DHT22;5860;52.018;8.536;2022-12-18T06:00:41;-8.00;99.90
11609;DHT22;5860;52.018;8.536;2022-12-18T06:03:09;-7.80;99.90
11609;DHT22;5860;52.018;8.536;2022-12-18T06:05:41;-7.90;99.90
11609;DHT22;5860;52.018;8.536;2022-12-18T06:08:08;-7.80;99.90
11609;DHT22;5860;52.018;8.536;2022-12-18T06:10:35;-7.90;99.90
11609;DHT22;5860;52.018;8.536;2022-12-18T06:13:03;-7.90;99.90
11609;DHT22;5860;52.018;8.536;2022-12-18T06:15:30;-8.00;99.90
11609;DHT22;5860;52.018;8.536;2022-12-18T06:17:57;-7.90;99.90
11609;DHT22;5860;52.018;8.536;2022-12-18T06:20:24;-8.10;99.90
11609;DHT22;5860;52.018;8.536;2022-12-18T06:22:57;-8.10;99.90
11609;DHT22;5860;52.018;8.536;2022-12-18T06:25:25;-8.10;99.90
11609;DHT22;5860;52.018;8.536;2022-12-18T06:27:51;-8.10;99.90
11609;DHT22;5860;52.018;8.536;2022-12-18T06:30:19;-8.20;99.90
11609;DHT22;5860;52.018;8.536;2022-12-18T06:32:48;-8.20;99.90
11609;DHT22;5860;52.018;8.536;2022-12-18T06:35:22;-8.20;99.90
11609;DHT22;5860;52.018;8.536;2022-12-18T06:37:49;-8.20;99.90
11609;DHT22;5860;52.018;8.536;2022-12-18T06:40:16;-8.10;99.90
11609;DHT22;5860;52.018;8.536;2022-12-18T06:42:43;-7.90;99.90
11609;DHT22;5860;52.018;8.536;2022-12-18T06:45:10;-7.90;99.90
11609;DHT22;5860;52.018;8.536;2022-12-18T06:47:37;-8.00;99.90
11609;DHT22;5860;52.018;8.536;2022-12-18T06:50:05;-8.00;99.90
11609;DHT22;5860;52.018;8.536;2022-12-18T06:52:33;-8.00;99.90
11609;DHT22;5860;52.018;8.536;2022-12-18T06:55:00;-8.00;99.90
11609;DHT22;5860;52.018;8.536;2022-12-18T06:57:27;-8.00;99.90
11609;DHT22;5860;52.018;8.536;2022-12-18T06:59:54;-7.90;99.90
11609;DHT22;5860;52.018;8.536;2022-12-18T07:02:21;-8.00;99.90
11609;DHT22;5860;52.018;8.536;2022-12-18T07:04:47;-8.10;99.90
11609;DHT22;5860;52.018;8.536;2022-12-18T07:07:14;-8.10;99.90
11609;DHT22;5860;52.018;8.536;2022-12-18T07:09:41;-8.00;99.90
11609;DHT22;5860;52.018;8.536;2022-12-18T07:12:09;-8.10;99.90
11609;DHT22;5860;52.018;8.536;2022-12-18T07:14:36;-8.10;99.90
11609;DHT22;5860;52.018;8.536;2022-12-18T07:17:03;-8.10;99.90
11609;DHT22;5860;52.018;8.536;2022-12-18T07:19:31;-8.00;99.90
11609;DHT22;5860;52.018;8.536;2022-12-18T07:21:58;-7.90;99.90
11609;DHT22;5860;52.018;8.536;2022-12-18T07:24:24;-7.90;99.90
11609;DHT22;5860;52.018;8.536;2022-12-18T07:26:51;-7.80;99.90
11609;DHT22;5860;52.018;8.536;2022-12-18T07:29:18;-7.90;99.90
11609;DHT22;5860;52.018;8.536;2022-12-18T07:31:45;-7.80;99.90
11609;DHT22;5860;52.018;8.536;2022-12-18T07:34:13;-7.90;99.90
11609;DHT22;5860;52.018;8.536;2022-12-18T07:36:42;-7.80;99.90
11609;DHT22;5860;52.018;8.536;2022-12-18T07:39:10;-7.90;99.90
11609;DHT22;5860;52.018;8.536;2022-12-18T07:41:38;-7.90;99.90
11609;DHT22;5860;52.018;8.536;2022-12-18T07:44:12;-7.80;99.90
11609;DHT22;5860;52.018;8.536;2022-12-18T07:46:39;-7.80;99.90
11609;DHT22;5860;52.018;8.536;2022-12-18T07:49:06;-7.80;99.90
11609;DHT22;5860;52.018;8.536;2022-12-18T07:51:33;-7.80;99.90
11609;DHT22;5860;52.018;8.536;2022-12-18T07:54:00;-7.90;99.90
11609;DHT22;5860;52.018;8.536;2022-12-18T07:56:27;-7.80;99.90
11609;DHT22;5860;52.018;8.536;2022-12-18T07:58:59;-7.70;99.90
11609;DHT22;5860;52.018;8.536;2022-12-18T08:01:27;-7.80;99.90
11609;DHT22;5860;52.018;8.536;2022-12-18T08:03:54;-7.70;99.90
11609;DHT22;5860;52.018;8.536;2022-12-18T08:06:21;-7.70;99.90
11609;DHT22;5860;52.018;8.536;2022-12-18T08:08:54;-7.50;99.90
11609;DHT22;5860;52.018;8.536;2022-12-18T08:11:23;-7.50;99.90
11609;DHT22;5860;52.018;8.536;2022-12-18T08:13:50;-7.50;99.90
11609;DHT22;5860;52.018;8.536;2022-12-18T08:16:17;-7.50;99.90
11609;DHT22;5860;52.018;8.536;2022-12-18T08:18:45;-7.40;99.90
11609;DHT22;5860;52.018;8.536;2022-12-18T08:21:31;-7.40;99.90
11609;DHT22;5860;52.018;8.536;2022-12-18T08:24:00;-7.30;99.90
11609;DHT22;5860;52.018;8.536;2022-12-18T08:26:29;-7.30;99.90
11609;DHT22;5860;52.018;8.536;2022-12-18T08:28:58;-7.20;99.90
11609;DHT22;5860;52.018;8.536;2022-12-18T08:31:27;-7.10;99.90
11609;DHT22;5860;52.018;8.536;2022-12-18T08:33:54;-7.10;99.90
11609;DHT22;5860;52.018;8.536;2022-12-18T08:36:22;-7.00;99.90
11609;DHT22;5860;52.018;8.536;2022-12-18T08:38:51;-6.90;99.90
11609;DHT22;5860;52.018;8.536;2022-12-18T08:41:18;-6.90;99.90
11609;DHT22;5860;52.018;8.536;2022-12-18T08:43:46;-6.70;99.90
11609;DHT22;5860;52.018;8.536;2022-12-18T08:46:40;-6.70;99.90
11609;DHT22;5860;52.018;8.536;2022-12-18T08:49:09;-6.70;99.90
11609;DHT22;5860;52.018;8.536;2022-12-18T08:51:37;-6.70;99.90
11609;DHT22;5860;52.018;8.536;2022-12-18T08:54:05;-6.60;99.90
11609;DHT22;5860;52.018;8.536;2022-12-18T08:56:32;-6.60;99.90
11609;DHT22;5860;52.018;8.536;2022-12-18T08:58:59;-6.60;99.90
11609;DHT22;5860;52.018;8.536;2022-12-18T09:01:27;-6.50;99.90
11609;DHT22;5860;52.018;8.536;2022-12-18T09:03:54;-6.40;99.90
11609;DHT22;5860;52.018;8.536;2022-12-18T09:06:22;-6.30;99.90
11609;DHT22;5860;52.018;8.536;2022-12-18T09:08:49;-6.30;99.90
11609;DHT22;5860;52.018;8.536;2022-12-18T09:11:22;-6.20;99.90
11609;DHT22;5860;52.018;8.536;2022-12-18T09:13:49;-6.10;99.90
11609;DHT22;5860;52.018;8.536;2022-12-18T09:16:17;-6.00;99.90
11609;DHT22;5860;52.018;8.536;2022-12-18T09:18:44;-5.90;99.90
11609;DHT22;5860;52.018;8.536;2022-12-18T09:21:19;-5.80;99.90
11609;DHT22;5860;52.018;8.536;2022-12-18T09:23:50;-5.80;99.90
11609;DHT22;5860;52.018;8.536;2022-12-18T09:26:17;-5.70;99.90
11609;DHT22;5860;52.018;8.536;2022-12-18T09:28:44;-5.50;99.90
11609;DHT22;5860;52.018;8.536;2022-12-18T09:31:12;-5.40;99.90
11609;DHT22;5860;52.018;8.536;2022-12-18T09:33:39;-5.30;99.90
11609;DHT22;5860;52.018;8.536;2022-12-18T09:36:09;-5.20;99.90
11609;DHT22;5860;52.018;8.536;2022-12-18T09:38:36;-5.10;99.90
11609;DHT22;5860;52.018;8.536;2022-12-18T09:47:02;-5.10;99.90
11609;DHT22;5860;52.018;8.536;2022-12-18T09:49:33;-5.00;99.90
11609;DHT22;5860;52.018;8.536;2022-12-18T09:52:08;-4.90;99.90
11609;DHT22;5860;52.018;8.536;2022-12-18T09:54:39;-4.80;99.90
11609;DHT22;5860;52.018;8.536;2022-12-18T09:57:14;-4.70;99.90
11609;DHT22;5860;52.018;8.536;2022-12-18T09:59:45;-4.60;99.90
11609;DHT22;5860;52.018;8.536;2022-12-18T10:02:21;-4.60;99.90
11609;DHT22;5860;52.018;8.536;2022-12-18T10:05:05;-4.60;99.90
11609;DHT22;5860;52.018;8.536;2022-12-18T10:07:52;-4.60;99.90
11609;DHT22;5860;52.018;8.536;2022-12-18T10:13:30;-4.30;99.90
11609;DHT22;5860;52.018;8.536;2022-12-18T10:16:19;-4.20;99.90
11609;DHT22;5860;52.018;8.536;2022-12-18T10:24:48;-3.90;99.90
11609;DHT22;5860;52.018;8.536;2022-12-18T10:27:23;-3.70;99.90
11609;DHT22;5860;52.018;8.536;2022-12-18T10:29:51;-3.60;99.90
11609;DHT22;5860;52.018;8.536;2022-12-18T10:32:20;-3.40;99.90
11609;DHT22;5860;52.018;8.536;2022-12-18T10:34:49;-3.30;99.90
11609;DHT22;5860;52.018;8.536;2022-12-18T10:37:27;-3.20;99.90
11609;DHT22;5860;52.018;8.536;2022-12-18T10:40:13;-3.00;99.90
11609;DHT22;5860;52.018;8.536;2022-12-18T10:43:11;-3.00;99.90
11609;DHT22;5860;52.018;8.536;2022-12-18T10:45:38;-2.70;99.90
11609;DHT22;5860;52.018;8.536;2022-12-18T10:48:18;-2.40;99.90
11609;DHT22;5860;52.018;8.536;2022-12-18T10:50:49;-2.20;99.90
11609;DHT22;5860;52.018;8.536;2022-12-18T10:53:37;-2.00;99.90
11609;DHT22;5860;52.018;8.536;2022-12-18T10:56:05;-1.80;99.90
11609;DHT22;5860;52.018;8.536;2022-12-18T10:58:35;-1.70;99.90
11609;DHT22;5860;52.018;8.536;2022-12-18T11:06:22;-1.40;99.90
11609;DHT22;5860;52.018;8.536;2022-12-18T11:09:20;-1.30;99.90
11609;DHT22;5860;52.018;8.536;2022-12-18T11:11:56;-1.20;99.90
11609;DHT22;5860;52.018;8.536;2022-12-18T11:14:32;-1.10;99.90
11609;DHT22;5860;52.018;8.536;2022-12-18T11:17:00;-1.20;99.90
11609;DHT22;5860;52.018;8.536;2022-12-18T11:19:53;-1.30;99.90
11609;DHT22;5860;52.018;8.536;2022-12-18T11:22:26;-1.30;99.90
11609;DHT22;5860;52.018;8.536;2022-12-18T11:25:18;-1.30;99.90
11609;DHT22;5860;52.018;8.536;2022-12-18T11:30:49;-1.30;99.90
11609;DHT22;5860;52.018;8.536;2022-12-18T11:33:20;-1.10;99.90
11609;DHT22;5860;52.018;8.536;2022-12-18T11:35:58;-1.10;99.90
11609;DHT22;5860;52.018;8.536;2022-12-18T11:38:37;-1.00;99.90
11609;DHT22;5860;52.018;8.536;2022-12-18T11:43:55;-1.00;99.90
11609;DHT22;5860;52.018;8.536;2022-12-18T11:46:46;-1.00;99.90
11609;DHT22;5860;52.018;8.536;2022-12-18T11:49:17;-1.00;99.90
11609;DHT22;5860;52.018;8.536;2022-12-18T11:51:51;-1.00;99.90
11609;DHT22;5860;52.018;8.536;2022-12-18T11:54:19;-1.00;99.90
11609;DHT22;5860;52.018;8.536;2022-12-18T11:56:58;-0.80;99.90
11609;DHT22;5860;52.018;8.536;2022-12-18T12:05:50;-0.80;99.90
11609;DHT22;5860;52.018;8.536;2022-12-18T12:11:13;-0.90;99.90
11609;DHT22;5860;52.018;8.536;2022-12-18T12:17:04;-0.80;99.90
11609;DHT22;5860;52.018;8.536;2022-12-18T12:31:02;-1.00;99.90
11609;DHT22;5860;52.018;8.536;2022-12-18T12:33:59;-0.90;99.90
11609;DHT22;5860;52.018;8.536;2022-12-18T12:36:53;-0.90;99.90
11609;DHT22;5860;52.018;8.536;2022-12-18T12:39:25;-0.90;99.90
11609;DHT22;5860;52.018;8.536;2022-12-18T12:41:54;-0.80;99.90
11609;DHT22;5860;52.018;8.536;2022-12-18T12:44:44;-0.80;99.90
11609;DHT22;5860;52.018;8.536;2022-12-18T12:47:35;-0.70;99.90
11609;DHT22;5860;52.018;8.536;2022-12-18T12:50:06;-0.70;99.90
11609;DHT22;5860;52.018;8.536;2022-12-18T12:52:59;-0.70;99.90
11609;DHT22;5860;52.018;8.536;2022-12-18T12:55:29;-0.70;99.90
11609;DHT22;5860;52.018;8.536;2022-12-18T12:58:21;-0.60;99.90
11609;DHT22;5860;52.018;8.536;2022-12-18T13:01:04;-0.60;99.90
11609;DHT22;5860;52.018;8.536;2022-12-18T13:06:35;-0.40;99.90
11609;DHT22;5860;52.018;8.536;2022-12-18T13:09:10;-0.50;99.90
11609;DHT22;5860;52.018;8.536;2022-12-18T13:11:41;-0.50;99.90
11609;DHT22;5860;52.018;8.536;2022-12-18T13:14:34;-0.50;99.90
11609;DHT22;5860;52.018;8.536;2022-12-18T13:19:51;-0.50;99.90
11609;DHT22;5860;52.018;8.536;2022-12-18T13:22:24;-0.50;99.90
11609;DHT22;5860;52.018;8.536;2022-12-18T13:24:51;-0.50;99.90
11609;DHT22;5860;52.018;8.536;2022-12-18T13:38:37;-0.30;99.90
11609;DHT22;5860;52.018;8.536;2022-12-18T13:41:25;-0.30;99.90
11609;DHT22;5860;52.018;8.536;2022-12-18T13:44:19;-0.40;99.90
11609;DHT22;5860;52.018;8.536;2022-12-18T13:46:50;-0.30;99.90
11609;DHT22;5860;52.018;8.536;2022-12-18T13:52:20;-0.40;99.90
11609;DHT22;5860;52.018;8.536;2022-12-18T13:54:51;-0.40;99.90
11609;DHT22;5860;52.018;8.536;2022-12-18T13:59:58;-0.40;99.90
11609;DHT22;5860;52.018;8.536;2022-12-18T14:02:27;-0.40;99.90
11609;DHT22;5860;52.018;8.536;2022-12-18T14:04:55;-0.40;99.90
11609;DHT22;5860;52.018;8.536;2022-12-18T14:07:24;-0.50;99.90
11609;DHT22;5860;52.018;8.536;2022-12-18T14:09:59;-0.50;99.90
11609;DHT22;5860;52.018;8.536;2022-12-18T14:12:49;-0.50;99.90
11609;DHT22;5860;52.018;8.536;2022-12-18T14:15:43;-0.50;99.90
11609;DHT22;5860;52.018;8.536;2022-12-18T14:18:20;-0.50;99.90
11609;DHT22;5860;52.018;8.536;2022-12-18T14:20:58;-0.50;99.90
11609;DHT22;5860;52.018;8.536;2022-12-18T14:23:33;-0.40;99.90
11609;DHT22;5860;52.018;8.536;2022-12-18T14:26:03;-0.50;99.90
11609;DHT22;5860;52.018;8.536;2022-12-18T14:28:32;-0.40;99.90
11609;DHT22;5860;52.018;8.536;2022-12-18T14:30:58;-0.40;99.90
11609;DHT22;5860;52.018;8.536;2022-12-18T14:33:28;-0.40;99.90
11609;DHT22;5860;52.018;8.536;2022-12-18T14:36:03;-0.40;99.90
11609;DHT22;5860;52.018;8.536;2022-12-18T14:41:00;-0.30;99.90
11609;DHT22;5860;52.018;8.536;2022-12-18T14:43:36;-0.40;99.90
11609;DHT22;5860;52.018;8.536;2022-12-18T14:46:06;-0.50;99.90
11609;DHT22;5860;52.018;8.536;2022-12-18T14:48:52;-0.50;99.90
11609;DHT22;5860;52.018;8.536;2022-12-18T14:51:24;-0.50;99.90
11609;DHT22;5860;52.018;8.536;2022-12-18T14:53:58;-0.20;99.90
11609;DHT22;5860;52.018;8.536;2022-12-18T14:56:29;-0.20;99.90
11609;DHT22;5860;52.018;8.536;2022-12-18T15:03:58;-0.30;99.90
11609;DHT22;5860;52.018;8.536;2022-12-18T15:06:32;-0.20;99.90
11609;DHT22;5860;52.018;8.536;2022-12-18T15:09:02;-0.30;99.90
11609;DHT22;5860;52.018;8.536;2022-12-18T15:11:43;-0.40;99.90
11609;DHT22;5860;52.018;8.536;2022-12-18T15:14:30;-0.30;99.90
11609;DHT22;5860;52.018;8.536;2022-12-18T15:16:59;-0.30;99.90
11609;DHT22;5860;52.018;8.536;2022-12-18T15:19:41;-0.10;99.90
11609;DHT22;5860;52.018;8.536;2022-12-18T15:22:26;-0.10;99.90
11609;DHT22;5860;52.018;8.536;2022-12-18T15:24:55;-0.10;99.90
11609;DHT22;5860;52.018;8.536;2022-12-18T15:27:32;-0.20;99.90
11609;DHT22;5860;52.018;8.536;2022-12-18T15:32:41;0.00;99.90
11609;DHT22;5860;52.018;8.536;2022-12-18T15:37:38;0.00;99.90
11609;DHT22;5860;52.018;8.536;2022-12-18T15:40:07;0.00;99.90
11609;DHT22;5860;52.018;8.536;2022-12-18T15:42:34;0.00;99.90
11609;DHT22;5860;52.018;8.536;2022-12-18T15:45:19;0.00;99.90
11609;DHT22;5860;52.018;8.536;2022-12-18T15:47:49;0.00;99.90
11609;DHT22;5860;52.018;8.536;2022-12-18T15:50:16;0.10;99.90
11609;DHT22;5860;52.018;8.536;2022-12-18T15:52:45;0.10;99.90
11609;DHT22;5860;52.018;8.536;2022-12-18T15:55:19;0.30;99.90
11609;DHT22;5860;52.018;8.536;2022-12-18T15:58:06;0.20;99.90
11609;DHT22;5860;52.018;8.536;2022-12-18T16:00:35;0.20;99.90
11609;DHT22;5860;52.018;8.536;2022-12-18T16:03:03;0.10;99.90
11609;DHT22;5860;52.018;8.536;2022-12-18T16:05:31;0.20;99.90
11609;DHT22;5860;52.018;8.536;2022-12-18T16:07:58;0.20;99.90
11609;DHT22;5860;52.018;8.536;2022-12-18T16:10:26;0.10;99.90
11609;DHT22;5860;52.018;8.536;2022-12-18T16:12:53;0.10;99.90
11609;DHT22;5860;52.018;8.536;2022-12-18T16:15:20;0.10;99.90
11609;DHT22;5860;52.018;8.536;2022-12-18T16:17:50;0.10;99.90
11609;DHT22;5860;52.018;8.536;2022-12-18T16:20:20;0.10;99.90
11609;DHT22;5860;52.018;8.536;2022-12-18T16:22:49;0.10;99.90
11609;DHT22;5860;52.018;8.536;2022-12-18T16:25:17;0.00;99.90
11609;DHT22;5860;52.018;8.536;2022-12-18T16:27:44;0.00;99.90
11609;DHT22;5860;52.018;8.536;2022-12-18T16:30:19;0.00;99.90
11609;DHT22;5860;52.018;8.536;2022-12-18T16:32:47;-0.10;99.90
11609;DHT22;5860;52.018;8.536;2022-12-18T16:35:15;0.00;99.90
11609;DHT22;5860;52.018;8.536;2022-12-18T16:37:43;0.00;99.90
11609;DHT22;5860;52.018;8.536;2022-12-18T16:40:13;0.10;99.90
11609;DHT22;5860;52.018;8.536;2022-12-18T16:42:42;0.10;99.90
11609;DHT22;5860;52.018;8.536;2022-12-18T16:45:13;0.10;99.90
11609;DHT22;5860;52.018;8.536;2022-12-18T16:47:40;0.10;99.90
11609;DHT22;5860;52.018;8.536;2022-12-18T16:50:08;0.10;99.90
11609;DHT22;5860;52.018;8.536;2022-12-18T16:52:35;0.20;99.90
11609;DHT22;5860;52.018;8.536;2022-12-18T16:55:02;0.10;99.90
11609;DHT22;5860;52.018;8.536;2022-12-18T16:57:29;0.10;99.90
11609;DHT22;5860;52.018;8.536;2022-12-18T16:59:56;0.10;99.90
11609;DHT22;5860;52.018;8.536;2022-12-18T17:02:30;0.10;99.90
11609;DHT22;5860;52.018;8.536;2022-12-18T17:04:58;0.20;99.90
11609;DHT22;5860;52.018;8.536;2022-12-18T17:07:26;0.20;99.90
11609;DHT22;5860;52.018;8.536;2022-12-18T17:09:54;0.20;99.90
11609;DHT22;5860;52.018;8.536;2022-12-18T17:12:21;0.20;99.90
11609;DHT22;5860;52.018;8.536;2022-12-18T17:14:48;0.20;99.90
11609;DHT22;5860;52.018;8.536;2022-12-18T17:17:16;0.30;99.90
11609;DHT22;5860;52.018;8.536;2022-12-18T17:19:48;0.30;99.90
11609;DHT22;5860;52.018;8.536;2022-12-18T17:22:15;0.30;99.90
11609;DHT22;5860;52.018;8.536;2022-12-18T17:24:42;0.30;99.90
11609;DHT22;5860;52.018;8.536;2022-12-18T17:27:09;0.30;99.90
11609;DHT22;5860;52.018;8.536;2022-12-18T17:29:36;0.30;99.90
11609;DHT22;5860;52.018;8.536;2022-12-18T17:32:12;0.40;99.90
11609;DHT22;5860;52.018;8.536;2022-12-18T17:34:39;0.40;99.90
11609;DHT22;5860;52.018;8.536;2022-12-18T17:37:06;0.40;99.90
11609;DHT22;5860;52.018;8.536;2022-12-18T17:39:33;0.40;99.90
11609;DHT22;5860;52.018;8.536;2022-12-18T17:42:00;0.40;99.90
11609;DHT22;5860;52.018;8.536;2022-12-18T17:44:27;0.40;99.90
11609;DHT22;5860;52.018;8.536;2022-12-18T17:46:54;0.50;99.90
11609;DHT22;5860;52.018;8.536;2022-12-18T17:49:22;0.40;99.90
11609;DHT22;5860;52.018;8.536;2022-12-18T17:51:49;0.40;99.90